createdAt,value
2023-04-20T00:00:11.449Z,5.60
2023-04-20T00:00:28.773Z,5.60
2023-04-20T00:00:41.489Z,5.56
2023-04-20T00:00:53.361Z,5.57
2023-04-20T00:01:05.598Z,5.54
2023-04-20T00:01:17.502Z,5.57
2023-04-20T00:01:32.582Z,5.58
2023-04-20T00:01:47.784Z,5.59
2023-04-20T00:02:05.555Z,5.63
2023-04-20T00:02:17.708Z,5.59
2023-04-20T00:02:29.848Z,5.58
2023-04-20T00:02:42.750Z,5.59
2023-04-20T00:02:55.055Z,5.59
2023-04-20T00:03:08.076Z,5.63
2023-04-20T00:03:21.390Z,5.64
2023-04-20T00:03:35.348Z,5.64
2023-04-20T00:03:47.638Z,5.66
2023-04-20T00:03:59.796Z,5.67
2023-04-20T00:04:11.943Z,5.67
2023-04-20T00:04:23.837Z,5.67
2023-04-20T00:04:36.557Z,5.64
2023-04-20T00:04:48.682Z,5.63
2023-04-20T00:05:00.675Z,5.60
2023-04-20T00:05:12.807Z,5.59
2023-04-20T00:05:24.852Z,5.57
2023-04-20T00:05:37.597Z,5.58
2023-04-20T00:05:49.555Z,5.56
2023-04-20T00:06:01.794Z,5.54
2023-04-20T00:06:14.005Z,5.56
2023-04-20T00:06:29.607Z,5.52
2023-04-20T00:06:44.087Z,5.54
2023-04-20T00:06:59.257Z,5.57
2023-04-20T00:07:11.165Z,5.58
2023-04-20T00:07:24.849Z,5.57
2023-04-20T00:07:36.846Z,5.51
2023-04-20T00:07:49.526Z,5.51
2023-04-20T00:08:01.424Z,5.49
2023-04-20T00:08:13.333Z,5.48
2023-04-20T00:08:25.237Z,5.48
2023-04-20T00:08:37.220Z,5.48
2023-04-20T00:08:49.224Z,5.48
2023-04-20T00:09:01.314Z,5.47
2023-04-20T00:09:15.379Z,5.46
2023-04-20T00:09:28.338Z,5.47
2023-04-20T00:09:40.333Z,5.45
2023-04-20T00:09:52.245Z,5.42
2023-04-20T00:10:04.591Z,5.42
2023-04-20T00:10:16.545Z,5.43
2023-04-20T00:10:28.491Z,5.44
2023-04-20T00:10:44.156Z,5.46
2023-04-20T00:10:56.094Z,5.48
2023-04-20T00:11:07.980Z,5.47
2023-04-20T00:11:19.975Z,5.44
2023-04-20T00:11:31.917Z,5.40
2023-04-20T00:11:43.825Z,5.39
2023-04-20T00:11:56.352Z,5.36
2023-04-20T00:12:08.275Z,5.39
2023-04-20T00:12:20.344Z,5.39
2023-04-20T00:12:32.272Z,5.38
2023-04-20T00:12:44.246Z,5.36
2023-04-20T00:12:56.133Z,5.36
2023-04-20T00:13:08.081Z,5.35
2023-04-20T00:13:20.190Z,5.36
2023-04-20T00:13:32.137Z,5.39
2023-04-20T00:13:44.047Z,5.37
2023-04-20T00:13:56.088Z,5.37
2023-04-20T00:14:08.077Z,5.36
2023-04-20T00:14:20.627Z,5.36
2023-04-20T00:14:32.675Z,5.38
2023-04-20T00:14:44.633Z,5.38
2023-04-20T00:14:56.528Z,5.39
2023-04-20T00:15:08.989Z,5.36
2023-04-20T00:15:21.017Z,5.35
2023-04-20T00:15:33.052Z,5.36
2023-04-20T00:15:53.902Z,5.36
2023-04-20T00:16:06.234Z,5.41
2023-04-20T00:16:18.299Z,5.42
2023-04-20T00:16:30.699Z,5.43
2023-04-20T00:16:42.830Z,5.44
2023-04-20T00:16:54.814Z,5.42
2023-04-20T00:17:06.992Z,5.42
2023-04-20T00:17:19.352Z,5.41
2023-04-20T00:17:31.546Z,5.42
2023-04-20T00:17:44.371Z,5.37
2023-04-20T00:17:56.376Z,5.38
2023-04-20T00:18:08.326Z,5.34
2023-04-20T00:18:20.231Z,5.34
2023-04-20T00:18:32.149Z,5.33
2023-04-20T00:18:46.553Z,5.32
2023-04-20T00:18:59.688Z,5.30
2023-04-20T00:19:12.065Z,5.32
2023-04-20T00:19:23.980Z,5.30
2023-04-20T00:19:36.472Z,5.29
2023-04-20T00:19:48.396Z,5.29
2023-04-20T00:20:00.560Z,5.29
2023-04-20T00:20:12.908Z,5.29
2023-04-20T00:20:25.106Z,5.29
2023-04-20T00:20:37.246Z,5.31
2023-04-20T00:20:49.178Z,5.32
2023-04-20T00:21:01.088Z,5.31
2023-04-20T00:21:13.493Z,5.33
2023-04-20T00:21:25.979Z,5.34
2023-04-20T00:21:37.960Z,5.35
2023-04-20T00:21:49.968Z,5.36
2023-04-20T00:22:01.908Z,5.37
2023-04-20T00:22:13.915Z,5.38
2023-04-20T00:22:26.314Z,5.37
2023-04-20T00:22:38.538Z,5.38
2023-04-20T00:22:50.702Z,5.38
2023-04-20T00:23:02.980Z,5.35
2023-04-20T00:23:15.108Z,5.30
2023-04-20T00:23:27.170Z,5.30
2023-04-20T00:23:39.233Z,5.29
2023-04-20T00:23:51.793Z,5.29
2023-04-20T00:24:03.878Z,5.30
2023-04-20T00:24:16.027Z,5.31
2023-04-20T00:24:27.963Z,5.31
2023-04-20T00:24:39.930Z,5.32
2023-04-20T00:24:52.046Z,5.32
2023-04-20T00:25:04.189Z,5.27
2023-04-20T00:25:16.164Z,5.25
2023-04-20T00:25:28.223Z,5.27
2023-04-20T00:25:40.236Z,5.29
2023-04-20T00:25:52.587Z,5.29
2023-04-20T00:26:10.676Z,5.31
2023-04-20T00:26:22.602Z,5.32
2023-04-20T00:26:34.941Z,5.26
2023-04-20T00:26:46.853Z,5.27
2023-04-20T00:26:58.833Z,5.25
2023-04-20T00:27:11.776Z,5.28
2023-04-20T00:27:23.708Z,5.27
2023-04-20T00:27:35.633Z,5.27
2023-04-20T00:27:47.515Z,5.28
2023-04-20T00:28:00.252Z,5.28
2023-04-20T00:28:12.150Z,5.30
2023-04-20T00:28:24.089Z,5.28
2023-04-20T00:28:35.983Z,5.27
2023-04-20T00:28:47.958Z,5.27
2023-04-20T00:28:59.995Z,5.27
2023-04-20T00:29:11.926Z,5.28
2023-04-20T00:29:23.917Z,5.26
2023-04-20T00:29:35.828Z,5.28
2023-04-20T00:29:47.753Z,5.28
2023-04-20T00:29:59.676Z,5.29
2023-04-20T00:30:12.310Z,5.29
2023-04-20T00:30:24.514Z,5.31
2023-04-20T00:30:36.529Z,5.31
2023-04-20T00:30:48.767Z,5.31
2023-04-20T00:31:00.997Z,5.30
2023-04-20T00:31:15.581Z,5.30
2023-04-20T00:31:27.711Z,5.27
2023-04-20T00:31:39.830Z,5.22
2023-04-20T00:31:51.783Z,5.24
2023-04-20T00:32:04.201Z,5.24
2023-04-20T00:32:16.110Z,5.24
2023-04-20T00:32:28.465Z,5.25
2023-04-20T00:32:40.892Z,5.25
2023-04-20T00:32:52.870Z,5.25
2023-04-20T00:33:05.026Z,5.26
2023-04-20T00:33:17.150Z,5.26
2023-04-20T00:33:29.142Z,5.26
2023-04-20T00:33:41.109Z,5.26
2023-04-20T00:33:53.047Z,5.22
2023-04-20T00:34:04.956Z,5.22
2023-04-20T00:34:16.986Z,5.19
2023-04-20T00:34:28.945Z,5.18
2023-04-20T00:34:41.174Z,5.18
2023-04-20T00:34:53.112Z,5.18
2023-04-20T00:35:05.437Z,5.18
2023-04-20T00:35:17.484Z,5.20
2023-04-20T00:35:29.497Z,5.19
2023-04-20T00:35:41.406Z,5.18
2023-04-20T00:35:53.977Z,5.18
2023-04-20T00:36:06.278Z,5.17
2023-04-20T00:36:21.815Z,5.16
2023-04-20T00:36:33.870Z,5.16
2023-04-20T00:36:45.824Z,5.15
2023-04-20T00:36:57.816Z,5.11
2023-04-20T00:37:09.783Z,5.13
2023-04-20T00:37:21.696Z,5.15
2023-04-20T00:37:33.587Z,5.16
2023-04-20T00:37:45.567Z,5.18
2023-04-20T00:37:57.483Z,5.12
2023-04-20T00:38:09.377Z,5.14
2023-04-20T00:38:21.316Z,5.09
2023-04-20T00:38:33.240Z,5.11
2023-04-20T00:38:45.165Z,5.10
2023-04-20T00:38:58.001Z,5.10
2023-04-20T00:39:10.392Z,5.10
2023-04-20T00:39:22.315Z,5.08
2023-04-20T00:39:34.218Z,5.07
2023-04-20T00:39:46.164Z,5.08
2023-04-20T00:39:58.071Z,5.08
2023-04-20T00:40:10.269Z,5.08
2023-04-20T00:40:22.172Z,5.11
2023-04-20T00:40:35.279Z,5.10
2023-04-20T00:40:52.892Z,5.09
2023-04-20T00:41:04.966Z,5.11
2023-04-20T00:41:16.847Z,5.11
2023-04-20T00:41:28.770Z,5.12
2023-04-20T00:41:40.853Z,5.12
2023-04-20T00:41:52.748Z,5.14
2023-04-20T00:42:06.591Z,5.13
2023-04-20T00:42:18.655Z,5.12
2023-04-20T00:42:30.612Z,5.10
2023-04-20T00:42:42.560Z,5.10
2023-04-20T00:42:54.515Z,5.09
2023-04-20T00:43:13.720Z,5.13
2023-04-20T00:43:25.880Z,5.12
2023-04-20T00:43:37.967Z,5.10
2023-04-20T00:43:54.027Z,5.08
2023-04-20T00:44:08.088Z,5.08
2023-04-20T00:44:20.025Z,5.09
2023-04-20T00:44:32.177Z,5.12
2023-04-20T00:44:44.064Z,5.13
2023-04-20T00:44:56.052Z,5.14
2023-04-20T00:45:08.785Z,5.11
2023-04-20T00:45:22.192Z,5.10
2023-04-20T00:45:34.104Z,5.08
2023-04-20T00:45:46.987Z,5.10
2023-04-20T00:45:59.063Z,5.08
2023-04-20T00:46:11.341Z,5.08
2023-04-20T00:46:24.643Z,5.08
2023-04-20T00:46:37.115Z,5.07
2023-04-20T00:46:51.625Z,4.99
2023-04-20T00:47:03.623Z,5.00
2023-04-20T00:47:15.778Z,4.93
2023-04-20T00:47:27.722Z,4.83
2023-04-20T00:47:39.661Z,4.84
2023-04-20T00:47:51.610Z,4.86
2023-04-20T00:48:04.480Z,4.90
2023-04-20T00:48:16.723Z,4.92
2023-04-20T00:48:28.614Z,4.93
2023-04-20T00:48:40.588Z,4.92
2023-04-20T00:48:54.300Z,4.92
2023-04-20T00:49:07.252Z,4.95
2023-04-20T00:49:19.581Z,4.97
2023-04-20T00:49:31.894Z,4.96
2023-04-20T00:49:43.890Z,4.98
2023-04-20T00:49:55.844Z,4.99
2023-04-20T00:50:08.523Z,4.87
2023-04-20T00:50:20.649Z,4.90
2023-04-20T00:50:33.776Z,4.94
2023-04-20T00:50:45.900Z,4.98
2023-04-20T00:50:57.982Z,4.99
2023-04-20T00:51:10.152Z,5.01
2023-04-20T00:51:22.861Z,5.01
2023-04-20T00:51:35.623Z,5.01
2023-04-20T00:51:47.522Z,5.03
2023-04-20T00:52:00.524Z,5.02
2023-04-20T00:52:12.761Z,5.04
2023-04-20T00:52:24.732Z,5.01
2023-04-20T00:52:36.805Z,5.04
2023-04-20T00:52:48.740Z,5.06
2023-04-20T00:53:02.297Z,5.08
2023-04-20T00:53:14.406Z,5.08
2023-04-20T00:53:26.524Z,5.09
2023-04-20T00:53:38.796Z,5.08
2023-04-20T00:53:50.746Z,5.07
2023-04-20T00:54:02.939Z,5.06
2023-04-20T00:54:15.331Z,5.01
2023-04-20T00:54:29.856Z,4.88
2023-04-20T00:54:42.675Z,4.81
2023-04-20T00:54:55.083Z,4.83
2023-04-20T00:55:07.418Z,4.82
2023-04-20T00:55:20.762Z,4.78
2023-04-20T00:55:33.229Z,4.73
2023-04-20T00:55:45.353Z,4.69
2023-04-20T00:55:57.375Z,4.69
2023-04-20T00:56:09.412Z,4.69
2023-04-20T00:56:21.627Z,4.69
2023-04-20T00:56:38.086Z,4.69
2023-04-20T00:56:51.262Z,4.64
2023-04-20T00:57:04.248Z,4.61
2023-04-20T00:57:22.469Z,4.58
2023-04-20T00:57:35.416Z,4.57
2023-04-20T00:57:47.706Z,4.50
2023-04-20T00:57:59.691Z,4.52
2023-04-20T00:58:12.362Z,4.53
2023-04-20T00:58:24.367Z,4.52
2023-04-20T00:58:36.479Z,4.46
2023-04-20T00:58:48.435Z,4.38
2023-04-20T00:59:01.953Z,4.35
2023-04-20T00:59:14.005Z,4.29
2023-04-20T00:59:26.008Z,4.20
2023-04-20T00:59:37.971Z,4.12
2023-04-20T00:59:51.618Z,4.11
2023-04-20T01:00:06.501Z,4.12
2023-04-20T01:00:18.619Z,4.07
2023-04-20T01:00:30.868Z,4.07
2023-04-20T01:00:42.924Z,4.01
2023-04-20T01:00:54.841Z,4.00
2023-04-20T01:01:07.411Z,3.96
2023-04-20T01:01:19.779Z,3.93
2023-04-20T01:01:31.907Z,3.94
2023-04-20T01:01:44.004Z,3.87
2023-04-20T01:01:56.237Z,3.84
2023-04-20T01:02:08.477Z,3.84
2023-04-20T01:02:20.616Z,3.83
2023-04-20T01:02:32.694Z,3.75
2023-04-20T01:02:44.867Z,3.73
2023-04-20T01:02:57.175Z,3.72
2023-04-20T01:03:09.567Z,3.73
2023-04-20T01:03:22.566Z,3.66
2023-04-20T01:03:35.455Z,3.67
2023-04-20T01:03:47.795Z,3.60
2023-04-20T01:04:00.180Z,3.51
2023-04-20T01:04:12.394Z,3.51
2023-04-20T01:04:24.730Z,3.51
2023-04-20T01:04:37.031Z,3.54
2023-04-20T01:04:49.205Z,3.59
2023-04-20T01:05:01.769Z,3.60
2023-04-20T01:05:14.136Z,3.50
2023-04-20T01:05:26.931Z,3.46
2023-04-20T01:05:38.985Z,3.50
2023-04-20T01:05:51.682Z,3.50
2023-04-20T01:06:04.054Z,3.57
2023-04-20T01:06:16.237Z,3.60
2023-04-20T01:06:28.317Z,3.56
2023-04-20T01:06:41.326Z,3.56
2023-04-20T01:06:55.985Z,3.59
2023-04-20T01:07:07.971Z,3.57
2023-04-20T01:07:19.998Z,3.56
2023-04-20T01:07:32.514Z,3.55
2023-04-20T01:07:44.455Z,3.54
2023-04-20T01:07:56.409Z,3.53
2023-04-20T01:08:08.354Z,3.50
2023-04-20T01:08:20.352Z,3.50
2023-04-20T01:08:32.307Z,3.47
2023-04-20T01:08:49.414Z,3.43
2023-04-20T01:09:02.084Z,3.44
2023-04-20T01:09:14.030Z,3.41
2023-04-20T01:09:25.983Z,3.42
2023-04-20T01:09:40.610Z,3.36
2023-04-20T01:09:52.540Z,3.39
2023-04-20T01:10:06.658Z,3.34
2023-04-20T01:10:18.947Z,3.24
2023-04-20T01:10:30.931Z,3.28
2023-04-20T01:10:42.860Z,3.32
2023-04-20T01:10:56.138Z,3.34
2023-04-20T01:11:08.463Z,3.31
2023-04-20T01:11:20.397Z,3.28
2023-04-20T01:11:32.400Z,3.28
2023-04-20T01:11:44.332Z,3.29
2023-04-20T01:11:58.959Z,3.20
2023-04-20T01:12:11.567Z,3.15
2023-04-20T01:12:23.621Z,3.20
2023-04-20T01:12:35.578Z,3.23
2023-04-20T01:12:47.584Z,3.09
2023-04-20T01:12:59.544Z,3.06
2023-04-20T01:13:12.042Z,3.13
2023-04-20T01:13:24.058Z,3.16
2023-04-20T01:13:38.325Z,3.18
2023-04-20T01:13:50.388Z,3.12
2023-04-20T01:14:02.339Z,3.02
2023-04-20T01:14:14.373Z,3.06
2023-04-20T01:14:26.474Z,3.11
2023-04-20T01:14:38.455Z,3.14
2023-04-20T01:14:50.538Z,3.14
2023-04-20T01:15:06.211Z,3.15
2023-04-20T01:15:18.181Z,3.18
2023-04-20T01:15:30.508Z,3.13
2023-04-20T01:15:42.466Z,3.13
2023-04-20T01:16:00.122Z,3.15
2023-04-20T01:16:12.555Z,3.21
2023-04-20T01:16:24.611Z,3.24
2023-04-20T01:16:36.977Z,3.27
2023-04-20T01:16:49.626Z,3.24
2023-04-20T01:17:04.457Z,3.22
2023-04-20T01:17:17.461Z,3.24
2023-04-20T01:17:29.410Z,3.18
2023-04-20T01:17:42.037Z,3.15
2023-04-20T01:17:54.071Z,3.15
2023-04-20T01:18:06.110Z,3.09
2023-04-20T01:18:20.742Z,3.09
2023-04-20T01:18:47.190Z,3.08
2023-04-20T01:18:59.508Z,3.08
2023-04-20T01:19:11.581Z,3.10
2023-04-20T01:19:23.520Z,3.05
2023-04-20T01:19:35.484Z,3.06
2023-04-20T01:19:47.569Z,3.08
2023-04-20T01:20:00.200Z,3.11
2023-04-20T01:20:12.711Z,3.15
2023-04-20T01:20:24.723Z,3.20
2023-04-20T01:20:36.706Z,3.26
2023-04-20T01:20:48.648Z,3.26
2023-04-20T01:21:00.555Z,3.32
2023-04-20T01:21:13.465Z,3.36
2023-04-20T01:21:25.592Z,3.39
2023-04-20T01:21:38.032Z,3.42
2023-04-20T01:21:50.291Z,3.46
2023-04-20T01:22:06.073Z,3.50
2023-04-20T01:22:20.003Z,3.55
2023-04-20T01:22:31.880Z,3.57
2023-04-20T01:22:48.870Z,3.58
2023-04-20T01:23:01.057Z,3.60
2023-04-20T01:23:12.981Z,3.57
2023-04-20T01:23:24.923Z,3.52
2023-04-20T01:23:36.857Z,3.53
2023-04-20T01:23:49.796Z,3.56
2023-04-20T01:24:01.883Z,3.58
2023-04-20T01:24:13.971Z,3.57
2023-04-20T01:24:25.863Z,3.53
2023-04-20T01:24:37.866Z,3.50
2023-04-20T01:24:49.844Z,3.52
2023-04-20T01:25:01.729Z,3.52
2023-04-20T01:25:14.010Z,3.48
2023-04-20T01:25:26.053Z,3.49
2023-04-20T01:25:37.992Z,3.51
2023-04-20T01:25:49.936Z,3.50
2023-04-20T01:26:06.682Z,3.48
2023-04-20T01:26:20.638Z,3.39
2023-04-20T01:26:32.538Z,3.23
2023-04-20T01:26:44.460Z,3.14
2023-04-20T01:26:56.386Z,3.05
2023-04-20T01:27:11.554Z,3.05
2023-04-20T01:27:23.503Z,3.09
2023-04-20T01:27:35.466Z,3.11
2023-04-20T01:27:48.008Z,3.13
2023-04-20T01:28:00.353Z,3.15
2023-04-20T01:28:14.259Z,3.13
2023-04-20T01:28:26.785Z,3.19
2023-04-20T01:28:39.000Z,3.20
2023-04-20T01:28:51.153Z,3.19
2023-04-20T01:29:03.577Z,3.17
2023-04-20T01:29:15.875Z,3.22
2023-04-20T01:29:28.238Z,3.24
2023-04-20T01:29:40.351Z,3.25
2023-04-20T01:29:52.276Z,3.21
2023-04-20T01:30:04.771Z,3.23
2023-04-20T01:30:17.273Z,3.16
2023-04-20T01:30:29.310Z,3.11
2023-04-20T01:30:41.252Z,3.09
2023-04-20T01:30:53.181Z,2.98
2023-04-20T01:31:07.354Z,2.97
2023-04-20T01:31:19.515Z,2.96
2023-04-20T01:31:31.724Z,3.02
2023-04-20T01:31:43.873Z,3.00
2023-04-20T01:31:55.892Z,3.05
2023-04-20T01:32:08.044Z,3.06
2023-04-20T01:32:19.963Z,3.10
2023-04-20T01:32:32.166Z,3.17
2023-04-20T01:32:44.537Z,3.23
2023-04-20T01:32:56.766Z,3.28
2023-04-20T01:33:08.723Z,3.31
2023-04-20T01:33:20.693Z,3.36
2023-04-20T01:33:33.109Z,3.39
2023-04-20T01:33:45.287Z,3.42
2023-04-20T01:33:57.198Z,3.45
2023-04-20T01:34:09.214Z,3.50
2023-04-20T01:34:21.112Z,3.50
2023-04-20T01:34:33.052Z,3.53
2023-04-20T01:34:45.125Z,3.57
2023-04-20T01:34:57.112Z,3.58
2023-04-20T01:35:10.090Z,3.62
2023-04-20T01:35:22.069Z,3.64
2023-04-20T01:35:33.993Z,3.66
2023-04-20T01:35:45.935Z,3.69
2023-04-20T01:35:58.044Z,3.72
2023-04-20T01:36:10.198Z,3.73
2023-04-20T01:36:22.122Z,3.74
2023-04-20T01:36:34.030Z,3.70
2023-04-20T01:36:45.991Z,3.64
2023-04-20T01:36:58.375Z,3.56
2023-04-20T01:37:10.335Z,3.54
2023-04-20T01:37:22.317Z,3.51
2023-04-20T01:37:34.296Z,3.51
2023-04-20T01:37:46.348Z,3.51
2023-04-20T01:37:58.266Z,3.49
2023-04-20T01:38:10.214Z,3.49
2023-04-20T01:38:23.396Z,3.52
2023-04-20T01:38:36.289Z,3.50
2023-04-20T01:38:49.048Z,3.53
2023-04-20T01:39:00.959Z,3.51
2023-04-20T01:39:12.978Z,3.52
2023-04-20T01:39:25.310Z,3.49
2023-04-20T01:39:38.885Z,3.49
2023-04-20T01:39:50.968Z,3.49
2023-04-20T01:40:03.875Z,3.48
2023-04-20T01:40:16.193Z,3.48
2023-04-20T01:40:28.138Z,3.44
2023-04-20T01:40:40.293Z,3.37
2023-04-20T01:40:53.167Z,3.34
2023-04-20T01:41:06.995Z,3.31
2023-04-20T01:41:19.180Z,3.32
2023-04-20T01:41:31.189Z,3.29
2023-04-20T01:41:43.134Z,3.28
2023-04-20T01:41:55.197Z,3.24
2023-04-20T01:42:07.393Z,3.23
2023-04-20T01:42:19.573Z,3.23
2023-04-20T01:42:31.657Z,3.25
2023-04-20T01:42:43.648Z,3.24
2023-04-20T01:42:55.836Z,3.21
2023-04-20T01:43:07.850Z,3.22
2023-04-20T01:43:20.682Z,3.20
2023-04-20T01:43:33.759Z,3.15
2023-04-20T01:43:45.638Z,3.12
2023-04-20T01:43:57.618Z,3.10
2023-04-20T01:44:09.563Z,3.09
2023-04-20T01:44:21.582Z,3.04
2023-04-20T01:44:33.486Z,3.00
2023-04-20T01:44:45.591Z,3.03
2023-04-20T01:44:57.637Z,3.03
2023-04-20T01:45:09.919Z,3.04
2023-04-20T01:45:22.025Z,3.05
2023-04-20T01:45:33.910Z,3.07
2023-04-20T01:45:45.811Z,3.12
2023-04-20T01:45:59.089Z,3.18
2023-04-20T01:46:11.004Z,3.23
2023-04-20T01:46:23.105Z,3.23
2023-04-20T01:46:39.530Z,3.28
2023-04-20T01:46:51.499Z,3.32
2023-04-20T01:47:03.650Z,3.36
2023-04-20T01:47:16.162Z,3.40
2023-04-20T01:47:29.176Z,3.43
2023-04-20T01:47:41.176Z,3.43
2023-04-20T01:47:53.239Z,3.47
2023-04-20T01:48:05.497Z,3.51
2023-04-20T01:48:17.564Z,3.53
2023-04-20T01:48:29.669Z,3.57
2023-04-20T01:48:41.607Z,3.61
2023-04-20T01:48:53.589Z,3.63
2023-04-20T01:49:06.402Z,3.66
2023-04-20T01:49:18.919Z,3.67
2023-04-20T01:49:31.297Z,3.69
2023-04-20T01:49:43.235Z,3.63
2023-04-20T01:49:55.243Z,3.60
2023-04-20T01:50:07.468Z,3.51
2023-04-20T01:50:19.556Z,3.39
2023-04-20T01:50:31.447Z,3.35
2023-04-20T01:50:43.374Z,3.30
2023-04-20T01:50:55.490Z,3.25
2023-04-20T01:51:08.788Z,3.31
2023-04-20T01:51:20.740Z,3.32
2023-04-20T01:51:34.596Z,3.32
2023-04-20T01:51:46.508Z,3.33
2023-04-20T01:51:58.420Z,3.36
2023-04-20T01:52:10.455Z,3.32
2023-04-20T01:52:25.033Z,3.29
2023-04-20T01:52:37.173Z,3.25
2023-04-20T01:52:49.052Z,3.27
2023-04-20T01:53:00.965Z,3.24
2023-04-20T01:53:13.720Z,3.25
2023-04-20T01:53:26.260Z,3.25
2023-04-20T01:53:38.146Z,3.26
2023-04-20T01:53:50.063Z,3.24
2023-04-20T01:54:03.427Z,3.11
2023-04-20T01:54:15.404Z,3.01
2023-04-20T01:54:27.337Z,2.83
2023-04-20T01:54:39.368Z,2.89
2023-04-20T01:54:51.491Z,2.94
2023-04-20T01:55:03.509Z,2.95
2023-04-20T01:55:15.525Z,2.97
2023-04-20T01:55:27.457Z,2.95
2023-04-20T01:55:39.473Z,2.88
2023-04-20T01:55:51.926Z,2.84
2023-04-20T01:56:04.076Z,2.79
2023-04-20T01:56:16.196Z,2.82
2023-04-20T01:56:28.442Z,2.78
2023-04-20T01:56:40.899Z,2.79
2023-04-20T01:56:52.782Z,2.80
2023-04-20T01:57:04.646Z,2.78
2023-04-20T01:57:16.580Z,2.79
2023-04-20T01:57:37.211Z,2.68
2023-04-20T01:57:49.171Z,2.77
2023-04-20T01:58:01.172Z,2.85
2023-04-20T01:58:13.074Z,2.89
2023-04-20T01:58:25.005Z,2.96
2023-04-20T01:58:36.883Z,3.00
2023-04-20T01:58:48.801Z,3.05
2023-04-20T01:59:00.732Z,3.10
2023-04-20T01:59:12.664Z,3.15
2023-04-20T01:59:24.716Z,3.21
2023-04-20T01:59:36.887Z,3.25
2023-04-20T01:59:48.861Z,3.29
2023-04-20T02:00:00.800Z,3.30
2023-04-20T02:00:13.777Z,3.34
2023-04-20T02:00:25.905Z,3.35
2023-04-20T02:00:37.885Z,3.33
2023-04-20T02:00:49.933Z,3.36
2023-04-20T02:01:02.648Z,3.41
2023-04-20T02:01:14.690Z,3.44
2023-04-20T02:01:26.976Z,3.48
2023-04-20T02:01:38.974Z,3.50
2023-04-20T02:01:50.902Z,3.52
2023-04-20T02:02:02.949Z,3.52
2023-04-20T02:02:15.023Z,3.53
2023-04-20T02:02:27.146Z,3.54
2023-04-20T02:02:39.686Z,3.60
2023-04-20T02:02:51.829Z,3.62
2023-04-20T02:03:04.633Z,3.64
2023-04-20T02:03:16.971Z,3.67
2023-04-20T02:03:29.352Z,3.67
2023-04-20T02:03:41.649Z,3.68
2023-04-20T02:03:54.059Z,3.70
2023-04-20T02:04:06.104Z,3.68
2023-04-20T02:04:18.148Z,3.70
2023-04-20T02:04:30.218Z,3.70
2023-04-20T02:04:42.114Z,3.73
2023-04-20T02:04:53.986Z,3.72
2023-04-20T02:05:06.341Z,3.74
2023-04-20T02:05:18.330Z,3.75
2023-04-20T02:05:30.569Z,3.77
2023-04-20T02:05:42.491Z,3.79
2023-04-20T02:05:54.472Z,3.82
2023-04-20T02:06:06.652Z,3.87
2023-04-20T02:06:18.624Z,3.88
2023-04-20T02:06:31.942Z,3.91
2023-04-20T02:06:43.915Z,3.92
2023-04-20T02:06:56.128Z,3.94
2023-04-20T02:07:08.080Z,3.96
2023-04-20T02:07:20.001Z,3.98
2023-04-20T02:07:32.068Z,3.98
2023-04-20T02:07:43.949Z,3.99
2023-04-20T02:07:56.041Z,4.02
2023-04-20T02:08:07.988Z,4.01
2023-04-20T02:08:20.563Z,4.03
2023-04-20T02:08:34.398Z,4.02
2023-04-20T02:08:46.371Z,4.03
2023-04-20T02:08:58.365Z,4.01
2023-04-20T02:09:10.695Z,4.00
2023-04-20T02:09:22.718Z,4.01
2023-04-20T02:09:34.617Z,4.01
2023-04-20T02:09:46.548Z,3.99
2023-04-20T02:09:58.475Z,3.96
2023-04-20T02:10:10.911Z,3.94
2023-04-20T02:10:22.902Z,3.92
2023-04-20T02:10:34.846Z,3.90
2023-04-20T02:10:46.862Z,3.92
2023-04-20T02:10:58.883Z,3.92
2023-04-20T02:11:10.774Z,3.93
2023-04-20T02:11:22.705Z,3.94
2023-04-20T02:11:35.372Z,3.94
2023-04-20T02:11:47.285Z,3.95
2023-04-20T02:11:59.169Z,3.94
2023-04-20T02:12:11.057Z,3.93
2023-04-20T02:12:23.043Z,3.91
2023-04-20T02:12:35.031Z,3.94
2023-04-20T02:12:55.659Z,3.98
2023-04-20T02:13:08.148Z,3.99
2023-04-20T02:13:20.804Z,3.99
2023-04-20T02:13:33.642Z,3.98
2023-04-20T02:13:45.591Z,3.95
2023-04-20T02:13:57.824Z,3.95
2023-04-20T02:14:09.827Z,3.92
2023-04-20T02:14:21.911Z,3.93
2023-04-20T02:14:34.015Z,3.94
2023-04-20T02:14:45.967Z,3.97
2023-04-20T02:14:57.922Z,3.98
2023-04-20T02:15:10.440Z,3.95
2023-04-20T02:15:22.844Z,3.96
2023-04-20T02:15:34.782Z,3.98
2023-04-20T02:15:46.746Z,4.00
2023-04-20T02:15:58.873Z,4.03
2023-04-20T02:16:10.791Z,4.05
2023-04-20T02:16:23.773Z,4.06
2023-04-20T02:16:36.504Z,4.05
2023-04-20T02:16:48.450Z,4.04
2023-04-20T02:17:01.116Z,4.04
2023-04-20T02:17:13.991Z,4.05
2023-04-20T02:17:26.211Z,4.06
2023-04-20T02:17:38.204Z,4.07
2023-04-20T02:17:52.966Z,4.10
2023-04-20T02:18:05.560Z,4.10
2023-04-20T02:18:17.823Z,4.10
2023-04-20T02:18:30.186Z,4.11
2023-04-20T02:18:42.181Z,4.11
2023-04-20T02:18:54.650Z,4.10
2023-04-20T02:19:06.905Z,4.12
2023-04-20T02:19:19.118Z,4.11
2023-04-20T02:19:31.336Z,4.08
2023-04-20T02:19:43.388Z,4.08
2023-04-20T02:19:55.324Z,4.07
2023-04-20T02:20:11.128Z,4.06
2023-04-20T02:20:23.162Z,4.05
2023-04-20T02:20:35.184Z,4.03
2023-04-20T02:20:47.194Z,4.05
2023-04-20T02:21:00.367Z,4.08
2023-04-20T02:21:12.408Z,4.11
2023-04-20T02:21:24.612Z,4.13
2023-04-20T02:21:36.534Z,4.12
2023-04-20T02:21:48.436Z,4.12
2023-04-20T02:22:01.173Z,4.11
2023-04-20T02:22:13.149Z,4.11
2023-04-20T02:22:25.094Z,4.08
2023-04-20T02:22:37.911Z,4.09
2023-04-20T02:22:59.920Z,4.10
2023-04-20T02:23:12.334Z,4.08
2023-04-20T02:23:24.301Z,4.06
2023-04-20T02:23:36.221Z,4.08
2023-04-20T02:23:48.316Z,4.09
2023-04-20T02:24:01.265Z,4.10
2023-04-20T02:24:13.193Z,4.10
2023-04-20T02:24:25.589Z,4.09
2023-04-20T02:24:37.577Z,4.08
2023-04-20T02:24:49.547Z,4.11
2023-04-20T02:25:02.150Z,4.08
2023-04-20T02:25:15.038Z,4.09
2023-04-20T02:25:27.393Z,4.09
2023-04-20T02:25:39.457Z,4.05
2023-04-20T02:25:51.573Z,4.03
2023-04-20T02:26:03.571Z,4.03
2023-04-20T02:26:16.863Z,4.03
2023-04-20T02:26:28.795Z,4.04
2023-04-20T02:26:40.730Z,4.07
2023-04-20T02:26:52.660Z,4.06
2023-04-20T02:27:05.496Z,4.06
2023-04-20T02:27:17.425Z,4.07
2023-04-20T02:27:29.438Z,4.08
2023-04-20T02:27:41.679Z,4.08
2023-04-20T02:27:53.648Z,4.09
2023-04-20T02:28:08.336Z,4.12
2023-04-20T02:28:20.498Z,4.10
2023-04-20T02:28:32.425Z,4.10
2023-04-20T02:28:44.352Z,4.12
2023-04-20T02:28:56.263Z,4.13
2023-04-20T02:29:08.257Z,4.12
2023-04-20T02:29:20.548Z,4.14
2023-04-20T02:29:32.624Z,4.15
2023-04-20T02:29:44.563Z,4.17
2023-04-20T02:29:56.562Z,4.19
2023-04-20T02:30:08.843Z,4.17
2023-04-20T02:30:21.529Z,4.11
2023-04-20T02:30:33.448Z,4.14
2023-04-20T02:30:45.733Z,4.16
2023-04-20T02:30:57.980Z,4.16
2023-04-20T02:31:10.030Z,4.15
2023-04-20T02:31:22.023Z,4.17
2023-04-20T02:31:34.330Z,4.19
2023-04-20T02:31:46.994Z,4.21
2023-04-20T02:31:59.006Z,4.17
2023-04-20T02:32:11.190Z,4.14
2023-04-20T02:32:23.309Z,4.12
2023-04-20T02:32:35.493Z,4.10
2023-04-20T02:32:47.474Z,4.05
2023-04-20T02:32:59.835Z,4.05
2023-04-20T02:33:14.448Z,4.05
2023-04-20T02:33:29.378Z,4.07
2023-04-20T02:33:41.286Z,4.09
2023-04-20T02:33:53.211Z,4.10
2023-04-20T02:34:06.241Z,4.10
2023-04-20T02:34:18.187Z,4.12
2023-04-20T02:34:30.155Z,4.14
2023-04-20T02:34:42.061Z,4.14
2023-04-20T02:34:54.022Z,4.14
2023-04-20T02:35:06.421Z,4.13
2023-04-20T02:35:18.463Z,4.11
2023-04-20T02:35:30.566Z,4.12
2023-04-20T02:35:42.578Z,4.12
2023-04-20T02:35:54.459Z,4.13
2023-04-20T02:36:06.674Z,4.10
2023-04-20T02:36:18.607Z,4.12
2023-04-20T02:36:30.943Z,4.14
2023-04-20T02:36:42.941Z,4.16
2023-04-20T02:36:54.869Z,4.16
2023-04-20T02:37:06.776Z,4.19
2023-04-20T02:37:18.902Z,4.22
2023-04-20T02:37:31.277Z,4.24
2023-04-20T02:37:44.175Z,4.24
2023-04-20T02:37:56.094Z,4.22
2023-04-20T02:38:08.045Z,4.23
2023-04-20T02:38:19.989Z,4.19
2023-04-20T02:38:31.990Z,4.15
2023-04-20T02:38:44.044Z,4.15
2023-04-20T02:38:56.201Z,4.12
2023-04-20T02:39:08.169Z,4.13
2023-04-20T02:39:20.181Z,4.12
2023-04-20T02:39:32.223Z,4.11
2023-04-20T02:39:44.404Z,4.15
2023-04-20T02:39:56.385Z,4.17
2023-04-20T02:40:08.944Z,4.20
2023-04-20T02:40:21.109Z,4.18
2023-04-20T02:40:33.032Z,4.19
2023-04-20T02:40:45.047Z,4.18
2023-04-20T02:40:56.965Z,4.19
2023-04-20T02:41:09.020Z,4.17
2023-04-20T02:41:21.101Z,4.17
2023-04-20T02:41:33.313Z,4.11
2023-04-20T02:41:45.665Z,4.09
2023-04-20T02:41:57.563Z,4.09
2023-04-20T02:42:09.445Z,4.07
2023-04-20T02:42:21.392Z,4.05
2023-04-20T02:42:33.288Z,4.04
2023-04-20T02:42:45.170Z,4.03
2023-04-20T02:42:57.088Z,4.02
2023-04-20T02:43:09.038Z,4.04
2023-04-20T02:43:21.038Z,4.04
2023-04-20T02:43:35.989Z,4.04
2023-04-20T02:43:47.919Z,4.08
2023-04-20T02:43:59.875Z,4.08
2023-04-20T02:44:11.868Z,4.10
2023-04-20T02:44:23.849Z,4.11
2023-04-20T02:44:35.747Z,4.10
2023-04-20T02:44:47.774Z,4.11
2023-04-20T02:44:59.719Z,4.12
2023-04-20T02:45:11.840Z,4.12
2023-04-20T02:45:23.741Z,4.11
2023-04-20T02:45:35.773Z,4.11
2023-04-20T02:45:47.693Z,4.11